Terminal Aerodrome Forecast
Issued by NWS

Home | Current Version | Previous Version | Text Only | Print | Product List | Glossary On
Versions: 1 2 3 4 5 6 7 8 9 10 11 12 13 14 15 16 17
000
FTUS44 KMAF 261720
TAFCNM
TAF
KCNM 261720Z 2618/2718 25017KT P6SM SCT250
     FM270200 26009KT P6SM SCT200
     FM271200 28010KT P6SM SCT250
     FM271600 28014G24KT P6SM SCT250=

USA.gov is the U.S. government's official web portal to all federal, state and local government web resources and services.